Terminal Aerodrome Forecast
Issued by NWS Rapid City, SD

Home | Current Version | Previous Version | Graphics & Text | Print | Product List | Glossary On
Versions: 1 2 3 4 5 6 7 8 9 10 11 12 13 14 15 16 17
000
FTUS43 KUNR 050520
TAFRAP
TAF
KRAP 050520Z 0506/0606 VRB04KT P6SM SCT100
      TEMPO 0506/0509 5SM FU
     FM051800 05011KT P6SM SCT070 BKN150
     FM052200 34020G30KT P6SM VCTS SCT035CB BKN060=

USA.gov is the U.S. government's official web portal to all federal, state and local government web resources and services.